sensor_id;sensor_type;location;lat;lon;timestamp;pressure;altitude;pressure_sealevel;temperature;humidity
47240;BME280;32978;53.586;10.052;2023-03-25T00:01:46;99896.34;;;8.76;100.00
47240;BME280;32978;53.586;10.052;2023-03-25T00:06:43;99900.22;;;8.66;100.00
47240;BME280;32978;53.586;10.052;2023-03-25T00:11:39;99902.00;;;8.53;100.00
47240;BME280;32978;53.586;10.052;2023-03-25T00:16:36;99906.03;;;8.47;100.00
47240;BME280;32978;53.586;10.052;2023-03-25T00:21:33;99901.22;;;8.53;100.00
47240;BME280;32978;53.586;10.052;2023-03-25T00:26:29;99902.31;;;8.60;100.00
47240;BME280;32978;53.586;10.052;2023-03-25T00:31:27;99890.81;;;8.46;100.00
47240;BME280;32978;53.586;10.052;2023-03-25T00:36:23;99890.00;;;8.37;100.00
47240;BME280;32978;53.586;10.052;2023-03-25T00:41:23;99886.47;;;8.36;100.00
47240;BME280;32978;53.586;10.052;2023-03-25T00:46:23;99878.63;;;8.35;100.00
47240;BME280;32978;53.586;10.052;2023-03-25T00:51:22;99881.69;;;8.33;100.00
47240;BME280;32978;53.586;10.052;2023-03-25T00:56:23;99879.56;;;8.39;100.00
47240;BME280;32978;53.586;10.052;2023-03-25T01:01:22;99893.34;;;8.51;100.00
47240;BME280;32978;53.586;10.052;2023-03-25T01:06:19;99875.88;;;8.61;100.00
47240;BME280;32978;53.586;10.052;2023-03-25T01:11:23;99874.44;;;8.63;100.00
47240;BME280;32978;53.586;10.052;2023-03-25T01:16:21;99869.13;;;8.67;100.00
47240;BME280;32978;53.586;10.052;2023-03-25T01:21:18;99876.78;;;8.74;100.00
47240;BME280;32978;53.586;10.052;2023-03-25T01:26:14;99888.97;;;8.76;100.00
47240;BME280;32978;53.586;10.052;2023-03-25T01:31:12;99862.66;;;8.80;100.00
47240;BME280;32978;53.586;10.052;2023-03-25T01:36:10;99864.72;;;8.83;100.00
47240;BME280;32978;53.586;10.052;2023-03-25T01:41:09;99869.06;;;8.84;100.00
47240;BME280;32978;53.586;10.052;2023-03-25T01:46:11;99865.06;;;8.82;100.00
47240;BME280;32978;53.586;10.052;2023-03-25T01:51:16;99843.72;;;8.84;100.00
47240;BME280;32978;53.586;10.052;2023-03-25T01:56:17;99837.50;;;8.75;100.00
47240;BME280;32978;53.586;10.052;2023-03-25T02:01:16;99830.84;;;8.63;100.00
47240;BME280;32978;53.586;10.052;2023-03-25T02:06:23;99836.91;;;8.60;100.00
47240;BME280;32978;53.586;10.052;2023-03-25T02:11:23;99838.06;;;8.59;100.00
47240;BME280;32978;53.586;10.052;2023-03-25T02:16:37;99826.19;;;8.64;100.00
47240;BME280;32978;53.586;10.052;2023-03-25T02:21:53;99825.81;;;8.66;100.00
47240;BME280;32978;53.586;10.052;2023-03-25T02:32:57;99818.69;;;8.52;100.00
47240;BME280;32978;53.586;10.052;2023-03-25T02:43:10;99816.94;;;8.30;100.00
47240;BME280;32978;53.586;10.052;2023-03-25T02:48:22;99807.50;;;8.28;100.00
47240;BME280;32978;53.586;10.052;2023-03-25T02:53:29;99800.09;;;8.37;100.00
47240;BME280;32978;53.586;10.052;2023-03-25T02:58:29;99791.78;;;8.42;100.00
47240;BME280;32978;53.586;10.052;2023-03-25T03:03:26;99798.50;;;8.45;100.00
47240;BME280;32978;53.586;10.052;2023-03-25T03:19:43;99793.19;;;8.39;100.00
47240;BME280;32978;53.586;10.052;2023-03-25T03:24:49;99780.72;;;8.38;100.00
47240;BME280;32978;53.586;10.052;2023-03-25T03:29:50;99782.50;;;8.43;100.00
47240;BME280;32978;53.586;10.052;2023-03-25T03:34:51;99784.75;;;8.41;100.00
47240;BME280;32978;53.586;10.052;2023-03-25T03:39:51;99780.56;;;8.35;100.00
47240;BME280;32978;53.586;10.052;2023-03-25T03:44:52;99795.94;;;8.31;100.00
47240;BME280;32978;53.586;10.052;2023-03-25T03:49:53;99782.81;;;8.33;100.00
47240;BME280;32978;53.586;10.052;2023-03-25T03:55:09;99780.44;;;8.31;100.00
47240;BME280;32978;53.586;10.052;2023-03-25T04:00:14;99778.69;;;8.27;100.00
47240;BME280;32978;53.586;10.052;2023-03-25T04:05:14;99771.91;;;8.33;100.00
47240;BME280;32978;53.586;10.052;2023-03-25T04:10:15;99790.84;;;8.29;100.00
47240;BME280;32978;53.586;10.052;2023-03-25T04:15:14;99792.28;;;8.27;100.00
47240;BME280;32978;53.586;10.052;2023-03-25T04:20:13;99783.66;;;8.25;100.00
47240;BME280;32978;53.586;10.052;2023-03-25T04:25:11;99780.25;;;8.28;100.00
47240;BME280;32978;53.586;10.052;2023-03-25T04:30:09;99782.00;;;8.32;100.00
47240;BME280;32978;53.586;10.052;2023-03-25T04:35:07;99785.22;;;8.34;100.00
47240;BME280;32978;53.586;10.052;2023-03-25T04:40:05;99783.13;;;8.40;100.00
47240;BME280;32978;53.586;10.052;2023-03-25T04:45:04;99809.94;;;8.12;100.00
47240;BME280;32978;53.586;10.052;2023-03-25T04:50:01;99830.31;;;7.62;100.00
47240;BME280;32978;53.586;10.052;2023-03-25T04:54:57;99821.66;;;7.43;100.00
47240;BME280;32978;53.586;10.052;2023-03-25T04:59:53;99812.34;;;7.35;100.00
47240;BME280;32978;53.586;10.052;2023-03-25T05:04:51;99820.38;;;7.31;100.00
47240;BME280;32978;53.586;10.052;2023-03-25T05:09:49;99834.75;;;7.32;100.00
47240;BME280;32978;53.586;10.052;2023-03-25T05:14:47;99824.84;;;7.27;100.00
47240;BME280;32978;53.586;10.052;2023-03-25T05:19:44;99837.94;;;7.25;100.00
47240;BME280;32978;53.586;10.052;2023-03-25T05:24:40;99851.06;;;7.23;100.00
47240;BME280;32978;53.586;10.052;2023-03-25T05:29:40;99853.28;;;7.21;100.00
47240;BME280;32978;53.586;10.052;2023-03-25T05:34:40;99860.34;;;7.22;100.00
47240;BME280;32978;53.586;10.052;2023-03-25T05:39:36;99863.53;;;7.24;100.00
47240;BME280;32978;53.586;10.052;2023-03-25T05:44:33;99866.88;;;7.21;100.00
47240;BME280;32978;53.586;10.052;2023-03-25T05:49:29;99876.47;;;7.19;100.00
47240;BME280;32978;53.586;10.052;2023-03-25T05:54:26;99866.38;;;7.19;100.00
47240;BME280;32978;53.586;10.052;2023-03-25T05:59:23;99867.50;;;7.18;100.00
47240;BME280;32978;53.586;10.052;2023-03-25T06:04:20;99872.66;;;7.20;100.00
47240;BME280;32978;53.586;10.052;2023-03-25T06:09:17;99867.22;;;7.20;100.00
47240;BME280;32978;53.586;10.052;2023-03-25T06:14:14;99862.25;;;7.30;100.00
47240;BME280;32978;53.586;10.052;2023-03-25T06:19:10;99863.88;;;7.31;100.00
47240;BME280;32978;53.586;10.052;2023-03-25T06:24:07;99857.31;;;7.32;100.00
47240;BME280;32978;53.586;10.052;2023-03-25T06:29:03;99871.88;;;7.36;100.00
47240;BME280;32978;53.586;10.052;2023-03-25T06:34:00;99873.47;;;7.37;100.00
47240;BME280;32978;53.586;10.052;2023-03-25T06:38:57;99863.41;;;7.38;100.00
47240;BME280;32978;53.586;10.052;2023-03-25T06:43:53;99872.84;;;7.41;100.00
47240;BME280;32978;53.586;10.052;2023-03-25T06:48:50;99865.78;;;7.40;100.00
47240;BME280;32978;53.586;10.052;2023-03-25T06:53:47;99863.56;;;7.42;100.00
47240;BME280;32978;53.586;10.052;2023-03-25T06:58:43;99866.13;;;7.47;100.00
47240;BME280;32978;53.586;10.052;2023-03-25T07:03:40;99866.94;;;7.56;100.00
47240;BME280;32978;53.586;10.052;2023-03-25T07:08:36;99880.03;;;7.36;100.00
47240;BME280;32978;53.586;10.052;2023-03-25T07:13:33;99881.75;;;7.15;100.00
47240;BME280;32978;53.586;10.052;2023-03-25T07:18:30;99885.56;;;7.14;100.00
47240;BME280;32978;53.586;10.052;2023-03-25T07:23:26;99884.34;;;7.37;100.00
47240;BME280;32978;53.586;10.052;2023-03-25T07:28:23;99885.69;;;7.66;100.00
47240;BME280;32978;53.586;10.052;2023-03-25T07:33:20;99884.28;;;7.77;100.00
47240;BME280;32978;53.586;10.052;2023-03-25T07:38:17;99873.53;;;7.90;100.00
47240;BME280;32978;53.586;10.052;2023-03-25T07:43:13;99886.34;;;7.98;100.00
47240;BME280;32978;53.586;10.052;2023-03-25T07:48:10;99870.00;;;7.98;100.00
47240;BME280;32978;53.586;10.052;2023-03-25T07:53:09;99869.38;;;8.01;100.00
47240;BME280;32978;53.586;10.052;2023-03-25T07:58:06;99857.34;;;8.02;100.00
47240;BME280;32978;53.586;10.052;2023-03-25T08:03:03;99854.44;;;8.25;100.00
47240;BME280;32978;53.586;10.052;2023-03-25T08:07:59;99852.69;;;8.29;100.00
47240;BME280;32978;53.586;10.052;2023-03-25T08:12:56;99860.38;;;8.27;100.00
47240;BME280;32978;53.586;10.052;2023-03-25T08:17:53;99853.00;;;8.18;100.00
47240;BME280;32978;53.586;10.052;2023-03-25T08:22:50;99872.72;;;8.24;100.00
47240;BME280;32978;53.586;10.052;2023-03-25T08:27:46;99873.03;;;8.31;100.00
47240;BME280;32978;53.586;10.052;2023-03-25T08:32:43;99885.97;;;8.60;100.00
47240;BME280;32978;53.586;10.052;2023-03-25T08:37:41;99861.88;;;8.80;100.00
47240;BME280;32978;53.586;10.052;2023-03-25T08:42:38;99856.75;;;8.70;100.00
47240;BME280;32978;53.586;10.052;2023-03-25T08:47:34;99848.09;;;8.68;100.00
47240;BME280;32978;53.586;10.052;2023-03-25T08:52:31;99862.91;;;8.49;100.00
47240;BME280;32978;53.586;10.052;2023-03-25T08:57:27;99859.41;;;8.40;100.00
47240;BME280;32978;53.586;10.052;2023-03-25T09:02:24;99874.16;;;8.04;100.00
47240;BME280;32978;53.586;10.052;2023-03-25T09:07:20;99874.00;;;7.83;100.00
47240;BME280;32978;53.586;10.052;2023-03-25T09:12:18;99902.50;;;7.77;100.00
47240;BME280;32978;53.586;10.052;2023-03-25T09:17:15;99896.06;;;7.55;100.00
47240;BME280;32978;53.586;10.052;2023-03-25T09:22:11;99907.22;;;7.36;100.00
47240;BME280;32978;53.586;10.052;2023-03-25T09:27:08;99915.06;;;7.29;100.00
47240;BME280;32978;53.586;10.052;2023-03-25T09:32:05;99903.84;;;7.22;100.00
47240;BME280;32978;53.586;10.052;2023-03-25T09:37:01;99903.84;;;7.31;100.00
47240;BME280;32978;53.586;10.052;2023-03-25T09:47:32;99902.84;;;7.18;100.00
47240;BME280;32978;53.586;10.052;2023-03-25T09:52:51;99912.75;;;7.14;100.00
47240;BME280;32978;53.586;10.052;2023-03-25T09:57:55;99892.75;;;7.10;100.00
47240;BME280;32978;53.586;10.052;2023-03-25T10:02:58;99886.38;;;7.14;100.00
47240;BME280;32978;53.586;10.052;2023-03-25T10:08:04;99881.50;;;7.43;100.00
47240;BME280;32978;53.586;10.052;2023-03-25T10:13:17;99886.03;;;7.73;100.00
47240;BME280;32978;53.586;10.052;2023-03-25T10:23:41;99875.94;;;8.17;100.00
47240;BME280;32978;53.586;10.052;2023-03-25T10:28:53;99877.56;;;8.83;100.00
47240;BME280;32978;53.586;10.052;2023-03-25T10:33:53;99889.66;;;9.83;100.00
47240;BME280;32978;53.586;10.052;2023-03-25T10:38:52;99871.66;;;9.70;100.00
47240;BME280;32978;53.586;10.052;2023-03-25T10:43:53;99866.31;;;9.23;100.00
47240;BME280;32978;53.586;10.052;2023-03-25T10:48:50;99855.66;;;9.60;100.00
47240;BME280;32978;53.586;10.052;2023-03-25T10:53:47;99864.03;;;9.55;100.00
47240;BME280;32978;53.586;10.052;2023-03-25T10:58:54;99847.50;;;9.30;100.00
47240;BME280;32978;53.586;10.052;2023-03-25T11:03:52;99850.13;;;9.18;100.00
47240;BME280;32978;53.586;10.052;2023-03-25T11:09:30;99851.16;;;9.04;100.00
47240;BME280;32978;53.586;10.052;2023-03-25T11:14:29;99879.50;;;8.74;100.00
47240;BME280;32978;53.586;10.052;2023-03-25T11:19:28;99892.41;;;8.30;100.00
47240;BME280;32978;53.586;10.052;2023-03-25T11:24:30;99921.22;;;7.96;100.00
47240;BME280;32978;53.586;10.052;2023-03-25T11:29:28;99942.34;;;7.82;100.00
47240;BME280;32978;53.586;10.052;2023-03-25T11:34:25;99935.78;;;7.74;100.00
47240;BME280;32978;53.586;10.052;2023-03-25T11:39:28;99919.31;;;7.88;100.00
47240;BME280;32978;53.586;10.052;2023-03-25T11:44:30;99911.63;;;8.59;100.00
47240;BME280;32978;53.586;10.052;2023-03-25T11:49:27;99910.78;;;8.68;100.00
47240;BME280;32978;53.586;10.052;2023-03-25T11:54:26;99887.97;;;8.90;100.00
47240;BME280;32978;53.586;10.052;2023-03-25T11:59:25;99877.78;;;9.08;100.00
47240;BME280;32978;53.586;10.052;2023-03-25T12:04:23;99876.59;;;10.64;100.00
47240;BME280;32978;53.586;10.052;2023-03-25T12:09:20;99845.75;;;11.78;100.00
47240;BME280;32978;53.586;10.052;2023-03-25T12:14:31;99837.84;;;10.62;100.00
47240;BME280;32978;53.586;10.052;2023-03-25T12:30:44;99855.03;;;9.33;100.00
47240;BME280;32978;53.586;10.052;2023-03-25T12:41:30;99834.81;;;9.55;100.00
47240;BME280;32978;53.586;10.052;2023-03-25T12:52:42;99829.44;;;8.87;100.00
47240;BME280;32978;53.586;10.052;2023-03-25T12:57:46;99856.16;;;8.55;100.00
47240;BME280;32978;53.586;10.052;2023-03-25T13:08:23;99850.06;;;8.58;100.00
47240;BME280;32978;53.586;10.052;2023-03-25T13:13:24;99849.28;;;8.58;100.00
47240;BME280;32978;53.586;10.052;2023-03-25T13:18:32;99847.88;;;8.43;100.00
47240;BME280;32978;53.586;10.052;2023-03-25T13:23:33;99851.25;;;8.31;100.00
47240;BME280;32978;53.586;10.052;2023-03-25T13:28:36;99872.72;;;8.24;100.00
47240;BME280;32978;53.586;10.052;2023-03-25T13:33:37;99893.06;;;7.92;100.00
47240;BME280;32978;53.586;10.052;2023-03-25T13:38:45;99876.09;;;8.12;100.00
47240;BME280;32978;53.586;10.052;2023-03-25T13:43:53;99882.06;;;8.79;100.00
47240;BME280;32978;53.586;10.052;2023-03-25T13:48:58;99876.69;;;8.53;100.00
47240;BME280;32978;53.586;10.052;2023-03-25T13:54:12;99869.03;;;8.29;100.00
47240;BME280;32978;53.586;10.052;2023-03-25T14:04:53;99860.06;;;8.19;100.00
47240;BME280;32978;53.586;10.052;2023-03-25T14:15:28;99863.31;;;7.87;100.00
47240;BME280;32978;53.586;10.052;2023-03-25T14:20:26;99858.00;;;7.82;100.00
47240;BME280;32978;53.586;10.052;2023-03-25T14:25:57;99880.09;;;7.71;100.00
47240;BME280;32978;53.586;10.052;2023-03-25T14:36:10;99884.41;;;7.72;100.00
47240;BME280;32978;53.586;10.052;2023-03-25T14:41:07;99878.03;;;7.68;100.00
47240;BME280;32978;53.586;10.052;2023-03-25T14:56:30;99868.72;;;8.21;100.00
47240;BME280;32978;53.586;10.052;2023-03-25T15:01:33;99870.31;;;8.22;100.00
47240;BME280;32978;53.586;10.052;2023-03-25T15:06:32;99867.41;;;8.28;100.00
47240;BME280;32978;53.586;10.052;2023-03-25T15:11:34;99874.97;;;8.13;100.00
47240;BME280;32978;53.586;10.052;2023-03-25T15:16:35;99877.38;;;7.89;100.00
47240;BME280;32978;53.586;10.052;2023-03-25T15:26:53;99858.16;;;7.59;100.00
47240;BME280;32978;53.586;10.052;2023-03-25T15:32:01;99858.78;;;7.56;100.00
47240;BME280;32978;53.586;10.052;2023-03-25T15:43:06;99796.50;;;10.51;100.00
47240;BME280;32978;53.586;10.052;2023-03-25T15:53:49;99799.72;;;8.64;100.00
47240;BME280;32978;53.586;10.052;2023-03-25T15:58:54;99787.97;;;8.26;100.00
47240;BME280;32978;53.586;10.052;2023-03-25T16:04:16;99800.84;;;7.99;100.00
47240;BME280;32978;53.586;10.052;2023-03-25T16:09:19;99806.94;;;7.78;100.00
47240;BME280;32978;53.586;10.052;2023-03-25T16:14:19;99797.19;;;7.77;100.00
47240;BME280;32978;53.586;10.052;2023-03-25T16:19:19;99806.78;;;7.75;100.00
47240;BME280;32978;53.586;10.052;2023-03-25T16:24:20;99813.34;;;7.83;100.00
47240;BME280;32978;53.586;10.052;2023-03-25T16:29:23;99819.75;;;7.87;100.00
47240;BME280;32978;53.586;10.052;2023-03-25T16:34:21;99843.91;;;7.79;100.00
47240;BME280;32978;53.586;10.052;2023-03-25T16:39:19;99846.47;;;7.67;100.00
47240;BME280;32978;53.586;10.052;2023-03-25T16:44:19;99877.00;;;7.47;100.00
47240;BME280;32978;53.586;10.052;2023-03-25T16:49:29;99863.47;;;7.07;100.00
47240;BME280;32978;53.586;10.052;2023-03-25T16:54:33;99869.81;;;6.93;100.00
47240;BME280;32978;53.586;10.052;2023-03-25T16:59:33;99860.47;;;6.77;100.00
47240;BME280;32978;53.586;10.052;2023-03-25T17:04:38;99858.53;;;6.69;100.00
47240;BME280;32978;53.586;10.052;2023-03-25T17:09:37;99859.34;;;6.69;100.00
47240;BME280;32978;53.586;10.052;2023-03-25T17:14:41;99852.75;;;6.62;100.00
47240;BME280;32978;53.586;10.052;2023-03-25T17:19:44;99823.50;;;6.59;100.00
47240;BME280;32978;53.586;10.052;2023-03-25T17:24:42;99825.09;;;6.60;100.00
47240;BME280;32978;53.586;10.052;2023-03-25T17:30:31;99816.97;;;6.60;100.00
47240;BME280;32978;53.586;10.052;2023-03-25T17:35:30;99814.72;;;6.62;100.00
47240;BME280;32978;53.586;10.052;2023-03-25T17:40:27;99814.88;;;6.65;100.00
47240;BME280;32978;53.586;10.052;2023-03-25T17:45:24;99820.50;;;6.69;100.00
47240;BME280;32978;53.586;10.052;2023-03-25T17:50:23;99819.38;;;6.70;100.00
47240;BME280;32978;53.586;10.052;2023-03-25T17:55:21;99823.38;;;6.64;100.00
47240;BME280;32978;53.586;10.052;2023-03-25T18:00:20;99829.59;;;6.64;100.00
47240;BME280;32978;53.586;10.052;2023-03-25T18:05:17;99818.53;;;6.61;100.00
47240;BME280;32978;53.586;10.052;2023-03-25T18:10:17;99824.63;;;6.58;100.00
47240;BME280;32978;53.586;10.052;2023-03-25T18:15:14;99823.81;;;6.57;100.00
47240;BME280;32978;53.586;10.052;2023-03-25T18:20:15;99823.00;;;6.57;100.00
47240;BME280;32978;53.586;10.052;2023-03-25T18:25:14;99822.53;;;6.55;100.00
47240;BME280;32978;53.586;10.052;2023-03-25T18:30:20;99821.91;;;6.58;100.00
47240;BME280;32978;53.586;10.052;2023-03-25T18:35:18;99837.22;;;6.53;100.00
47240;BME280;32978;53.586;10.052;2023-03-25T18:40:21;99836.38;;;6.44;100.00
47240;BME280;32978;53.586;10.052;2023-03-25T18:45:21;99834.78;;;6.43;100.00
47240;BME280;32978;53.586;10.052;2023-03-25T18:50:35;99844.66;;;6.39;100.00
47240;BME280;32978;53.586;10.052;2023-03-25T18:55:34;99854.53;;;6.35;100.00
47240;BME280;32978;53.586;10.052;2023-03-25T19:00:38;99856.00;;;6.41;100.00
47240;BME280;32978;53.586;10.052;2023-03-25T19:05:36;99875.00;;;6.41;100.00
47240;BME280;32978;53.586;10.052;2023-03-25T19:10:33;99876.59;;;6.42;100.00
47240;BME280;32978;53.586;10.052;2023-03-25T19:15:30;99872.28;;;6.41;100.00
47240;BME280;32978;53.586;10.052;2023-03-25T19:20:33;99879.00;;;6.44;100.00
47240;BME280;32978;53.586;10.052;2023-03-25T19:25:31;99881.91;;;6.47;100.00
47240;BME280;32978;53.586;10.052;2023-03-25T19:30:28;99887.97;;;6.44;100.00
47240;BME280;32978;53.586;10.052;2023-03-25T19:35:27;99890.03;;;6.47;100.00
47240;BME280;32978;53.586;10.052;2023-03-25T19:40:27;99895.47;;;6.47;100.00
47240;BME280;32978;53.586;10.052;2023-03-25T19:45:25;99897.09;;;6.48;100.00
47240;BME280;32978;53.586;10.052;2023-03-25T19:50:27;99906.97;;;6.44;100.00
47240;BME280;32978;53.586;10.052;2023-03-25T19:55:24;99899.31;;;6.46;100.00
47240;BME280;32978;53.586;10.052;2023-03-25T20:00:23;99901.53;;;6.44;100.00
47240;BME280;32978;53.586;10.052;2023-03-25T20:05:21;99904.56;;;6.43;100.00
47240;BME280;32978;53.586;10.052;2023-03-25T20:10:22;99906.81;;;6.41;100.00
47240;BME280;32978;53.586;10.052;2023-03-25T20:15:20;99932.16;;;6.36;100.00
47240;BME280;32978;53.586;10.052;2023-03-25T20:20:18;99911.66;;;6.30;100.00
47240;BME280;32978;53.586;10.052;2023-03-25T20:25:15;99918.69;;;6.31;100.00
47240;BME280;32978;53.586;10.052;2023-03-25T20:30:14;99919.06;;;6.38;100.00
47240;BME280;32978;53.586;10.052;2023-03-25T20:35:12;99927.53;;;6.37;100.00
47240;BME280;32978;53.586;10.052;2023-03-25T20:40:12;99933.59;;;6.34;100.00
47240;BME280;32978;53.586;10.052;2023-03-25T20:45:11;99944.03;;;6.26;100.00
47240;BME280;32978;53.586;10.052;2023-03-25T20:50:09;99949.31;;;6.23;100.00
47240;BME280;32978;53.586;10.052;2023-03-25T20:55:08;99963.50;;;6.20;100.00
47240;BME280;32978;53.586;10.052;2023-03-25T21:00:06;99958.06;;;6.20;100.00
47240;BME280;32978;53.586;10.052;2023-03-25T21:05:04;99961.25;;;6.22;100.00
47240;BME280;32978;53.586;10.052;2023-03-25T21:10:02;99971.22;;;6.13;100.00
47240;BME280;32978;53.586;10.052;2023-03-25T21:14:59;99970.66;;;6.16;100.00
47240;BME280;32978;53.586;10.052;2023-03-25T21:19:56;99973.03;;;6.17;100.00
47240;BME280;32978;53.586;10.052;2023-03-25T21:24:53;99982.50;;;6.20;100.00
47240;BME280;32978;53.586;10.052;2023-03-25T21:29:50;99990.66;;;6.20;100.00
47240;BME280;32978;53.586;10.052;2023-03-25T21:34:47;99982.88;;;6.27;100.00
47240;BME280;32978;53.586;10.052;2023-03-25T21:39:44;99992.13;;;6.26;100.00
47240;BME280;32978;53.586;10.052;2023-03-25T21:44:42;99997.53;;;6.26;100.00
47240;BME280;32978;53.586;10.052;2023-03-25T21:49:39;99997.41;;;6.31;100.00
47240;BME280;32978;53.586;10.052;2023-03-25T21:54:38;100004.97;;;6.34;100.00
47240;BME280;32978;53.586;10.052;2023-03-25T21:59:38;100011.50;;;6.33;100.00
47240;BME280;32978;53.586;10.052;2023-03-25T22:04:35;99999.53;;;6.34;100.00
47240;BME280;32978;53.586;10.052;2023-03-25T22:09:33;100005.94;;;6.38;100.00
47240;BME280;32978;53.586;10.052;2023-03-25T22:14:30;100017.25;;;6.31;100.00
47240;BME280;32978;53.586;10.052;2023-03-25T22:19:26;100017.56;;;6.30;100.00
47240;BME280;32978;53.586;10.052;2023-03-25T22:24:22;100024.81;;;6.21;100.00
47240;BME280;32978;53.586;10.052;2023-03-25T22:29:19;100031.75;;;6.27;100.00
47240;BME280;32978;53.586;10.052;2023-03-25T22:34:16;100024.09;;;6.29;100.00
47240;BME280;32978;53.586;10.052;2023-03-25T22:39:12;100039.78;;;6.32;100.00
47240;BME280;32978;53.586;10.052;2023-03-25T22:44:09;100040.94;;;6.40;100.00
47240;BME280;32978;53.586;10.052;2023-03-25T22:49:05;100037.13;;;6.41;100.00
47240;BME280;32978;53.586;10.052;2023-03-25T22:54:02;100043.00;;;6.34;100.00
47240;BME280;32978;53.586;10.052;2023-03-25T22:59:01;100047.91;;;6.32;100.00
47240;BME280;32978;53.586;10.052;2023-03-25T23:03:58;100063.72;;;6.30;100.00
47240;BME280;32978;53.586;10.052;2023-03-25T23:08:56;100065.13;;;6.27;100.00
47240;BME280;32978;53.586;10.052;2023-03-25T23:13:57;100072.56;;;6.22;100.00
47240;BME280;32978;53.586;10.052;2023-03-25T23:18:54;100071.56;;;6.18;100.00
47240;BME280;32978;53.586;10.052;2023-03-25T23:23:53;100080.22;;;6.20;100.00
47240;BME280;32978;53.586;10.052;2023-03-25T23:28:50;100079.59;;;6.23;100.00
47240;BME280;32978;53.586;10.052;2023-03-25T23:33:48;100098.50;;;6.28;100.00
47240;BME280;32978;53.586;10.052;2023-03-25T23:38:45;100099.00;;;6.30;100.00
47240;BME280;32978;53.586;10.052;2023-03-25T23:43:43;100096.28;;;6.30;100.00
47240;BME280;32978;53.586;10.052;2023-03-25T23:48:39;100109.84;;;6.30;100.00
47240;BME280;32978;53.586;10.052;2023-03-25T23:53:37;100114.16;;;6.31;100.00
47240;BME280;32978;53.586;10.052;2023-03-25T23:58:34;100124.44;;;6.34;100.00
